Aérodrome :
LOGIN :

S'inscrire | Disclaimer

   EN    FR    IT 

 










Légende :    VFR   VFR Marginal   IFR   IFR Intensif   IFR Très Intensif
Visi : 
Plafond : 
>= 8 km
>= 3000ft
5 à 8 km
1000 à 3000 ft
1500m à 5 km
500 à 1000 ft
800 à 1500m
200 à 500 ft
< 800m
< 200 ft
Symboles :   Orages  Brouillard  Fortes neiges  Fortes précipitations  Vent > 20 kt
SIGMETs :   Divers  Orages  Givrage  Turbulence  Onde Orograph.  Cendres Volcan.






- Altitude de l'aérodrome : 586 ft


LIMN - Cameri Air Force Base

DERNIER METAR :
  • 291355Z VRB02KT 9999 BKN030 21/10 Q1020 RMK BKN VIS MIN 9999 BLU

METARs EXPIRÉS :
  • 291255Z 12004KT 050V180 9999 BKN030 20/10 Q1020 RMK BKN VIS MIN 9999 BLU
  • 291155Z 10005KT 040V130 9999 BKN030 19/09 Q1021 RMK BKN VIS MIN 9999 BLU

TAF TAF LIMN
Valide du 29 à 15h jusqu'au 30 à 00h UTC


291400Z 2915/2924 07010KT 9999 SCT030 SCT060
BECMG 2919/2921 VRB03KT



MET'MAP, la Météo Aéronautique d'un coup d'oeil ! - Copyright ORBIFLY Décembre 2007 - Disclaimer

ORBIFLY MET'MAP TEAM :

Programmation & Développement : Alexandra Zaïnal
Sur une idée originale de : Baudouin d'Aumeries
Assistance à la programmation : Marc-Olivier Méhu
Soutien technique & logistique : Manuel Goepfert

Contact : metmap@orbifly.com




SOURCES & CREDITS :

   NOAA